sensor_id;sensor_type;location;lat;lon;timestamp;pressure;altitude;pressure_sealevel;temperature;humidity
50011;BME280;35899;50.352;19.390;2023-12-29T00:01:19;97681.54;;;5.26;100.00
50011;BME280;35899;50.352;19.390;2023-12-29T00:03:45;97678.92;;;5.30;100.00
50011;BME280;35899;50.352;19.390;2023-12-29T00:06:12;97674.28;;;5.34;100.00
50011;BME280;35899;50.352;19.390;2023-12-29T00:08:39;97675.33;;;5.36;100.00
50011;BME280;35899;50.352;19.390;2023-12-29T00:11:05;97669.18;;;5.39;100.00
50011;BME280;35899;50.352;19.390;2023-12-29T00:13:32;97662.08;;;5.41;100.00
50011;BME280;35899;50.352;19.390;2023-12-29T00:16:02;97659.48;;;5.41;100.00
50011;BME280;35899;50.352;19.390;2023-12-29T00:18:29;97664.42;;;5.41;100.00
50011;BME280;35899;50.352;19.390;2023-12-29T00:20:56;97662.49;;;5.42;100.00
50011;BME280;35899;50.352;19.390;2023-12-29T00:23:33;97657.58;;;5.44;100.00
50011;BME280;35899;50.352;19.390;2023-12-29T00:26:00;97651.36;;;5.45;100.00
50011;BME280;35899;50.352;19.390;2023-12-29T00:28:26;97648.21;;;5.46;100.00
50011;BME280;35899;50.352;19.390;2023-12-29T00:30:53;97641.46;;;5.47;100.00
50011;BME280;35899;50.352;19.390;2023-12-29T00:33:29;97638.97;;;5.49;100.00
50011;BME280;35899;50.352;19.390;2023-12-29T00:35:58;97630.95;;;5.52;100.00
50011;BME280;35899;50.352;19.390;2023-12-29T00:38:26;97632.73;;;5.53;100.00
50011;BME280;35899;50.352;19.390;2023-12-29T00:40:55;97628.55;;;5.54;100.00
50011;BME280;35899;50.352;19.390;2023-12-29T00:43:21;97623.68;;;5.56;100.00
50011;BME280;35899;50.352;19.390;2023-12-29T00:45:48;97620.23;;;5.56;100.00
50011;BME280;35899;50.352;19.390;2023-12-29T00:48:15;97614.16;;;5.54;100.00
50011;BME280;35899;50.352;19.390;2023-12-29T00:50:42;97616.98;;;5.53;100.00
50011;BME280;35899;50.352;19.390;2023-12-29T00:53:09;97627.14;;;5.48;100.00
50011;BME280;35899;50.352;19.390;2023-12-29T00:55:36;97634.27;;;5.47;100.00
50011;BME280;35899;50.352;19.390;2023-12-29T00:58:03;97635.66;;;5.47;100.00
50011;BME280;35899;50.352;19.390;2023-12-29T01:00:30;97637.52;;;5.47;100.00
50011;BME280;35899;50.352;19.390;2023-12-29T01:02:57;97638.73;;;5.47;100.00
50011;BME280;35899;50.352;19.390;2023-12-29T01:05:24;97636.00;;;5.47;100.00
50011;BME280;35899;50.352;19.390;2023-12-29T01:07:50;97629.09;;;5.47;100.00
50011;BME280;35899;50.352;19.390;2023-12-29T01:10:17;97630.88;;;5.49;100.00
50011;BME280;35899;50.352;19.390;2023-12-29T01:12:43;97630.15;;;5.50;100.00
50011;BME280;35899;50.352;19.390;2023-12-29T01:15:10;97630.98;;;5.51;100.00
50011;BME280;35899;50.352;19.390;2023-12-29T01:17:36;97628.95;;;5.51;100.00
50011;BME280;35899;50.352;19.390;2023-12-29T01:20:03;97628.77;;;5.50;100.00
50011;BME280;35899;50.352;19.390;2023-12-29T01:22:30;97627.23;;;5.50;100.00
50011;BME280;35899;50.352;19.390;2023-12-29T01:25:00;97626.39;;;5.50;100.00
50011;BME280;35899;50.352;19.390;2023-12-29T01:27:27;97623.05;;;5.48;100.00
50011;BME280;35899;50.352;19.390;2023-12-29T01:29:54;97623.65;;;5.46;100.00
50011;BME280;35899;50.352;19.390;2023-12-29T01:32:21;97623.76;;;5.44;100.00
50011;BME280;35899;50.352;19.390;2023-12-29T01:34:48;97617.73;;;5.42;100.00
50011;BME280;35899;50.352;19.390;2023-12-29T01:37:14;97610.23;;;5.38;100.00
50011;BME280;35899;50.352;19.390;2023-12-29T01:39:42;97600.21;;;5.33;100.00
50011;BME280;35899;50.352;19.390;2023-12-29T01:42:09;97600.70;;;5.30;100.00
50011;BME280;35899;50.352;19.390;2023-12-29T01:44:36;97599.04;;;5.29;100.00
50011;BME280;35899;50.352;19.390;2023-12-29T01:47:22;97603.55;;;5.28;100.00
50011;BME280;35899;50.352;19.390;2023-12-29T01:49:49;97600.89;;;5.26;100.00
50011;BME280;35899;50.352;19.390;2023-12-29T01:52:17;97594.45;;;5.22;100.00
50011;BME280;35899;50.352;19.390;2023-12-29T01:54:46;97591.54;;;5.15;100.00
50011;BME280;35899;50.352;19.390;2023-12-29T01:57:14;97587.45;;;5.08;100.00
50011;BME280;35899;50.352;19.390;2023-12-29T01:59:41;97584.98;;;5.03;100.00
50011;BME280;35899;50.352;19.390;2023-12-29T02:02:09;97584.52;;;4.99;100.00
50011;BME280;35899;50.352;19.390;2023-12-29T02:04:36;97582.27;;;4.93;100.00
50011;BME280;35899;50.352;19.390;2023-12-29T02:07:04;97584.79;;;4.90;100.00
50011;BME280;35899;50.352;19.390;2023-12-29T02:09:31;97583.06;;;4.87;100.00
50011;BME280;35899;50.352;19.390;2023-12-29T02:11:58;97585.64;;;4.84;100.00
50011;BME280;35899;50.352;19.390;2023-12-29T02:14:25;97592.39;;;4.83;100.00
50011;BME280;35899;50.352;19.390;2023-12-29T02:20:05;97567.31;;;4.74;100.00
50011;BME280;35899;50.352;19.390;2023-12-29T02:22:32;97574.36;;;4.74;100.00
50011;BME280;35899;50.352;19.390;2023-12-29T02:24:58;97570.69;;;4.72;100.00
50011;BME280;35899;50.352;19.390;2023-12-29T02:27:29;97568.14;;;4.68;100.00
50011;BME280;35899;50.352;19.390;2023-12-29T02:30:09;97572.20;;;4.65;100.00
50011;BME280;35899;50.352;19.390;2023-12-29T02:32:39;97568.30;;;4.61;100.00
50011;BME280;35899;50.352;19.390;2023-12-29T02:35:09;97564.26;;;4.57;100.00
50011;BME280;35899;50.352;19.390;2023-12-29T02:37:38;97569.77;;;4.53;100.00
50011;BME280;35899;50.352;19.390;2023-12-29T02:40:07;97575.75;;;4.50;100.00
50011;BME280;35899;50.352;19.390;2023-12-29T02:42:34;97571.54;;;4.48;100.00
50011;BME280;35899;50.352;19.390;2023-12-29T02:45:00;97568.30;;;4.45;100.00
50011;BME280;35899;50.352;19.390;2023-12-29T02:47:27;97561.86;;;4.40;100.00
50011;BME280;35899;50.352;19.390;2023-12-29T02:49:54;97564.23;;;4.37;100.00
50011;BME280;35899;50.352;19.390;2023-12-29T02:52:21;97558.45;;;4.37;100.00
50011;BME280;35899;50.352;19.390;2023-12-29T02:54:47;97554.25;;;4.35;100.00
50011;BME280;35899;50.352;19.390;2023-12-29T02:57:14;97552.19;;;4.31;100.00
50011;BME280;35899;50.352;19.390;2023-12-29T02:59:41;97549.73;;;4.29;100.00
50011;BME280;35899;50.352;19.390;2023-12-29T03:02:07;97544.98;;;4.28;100.00
50011;BME280;35899;50.352;19.390;2023-12-29T03:04:34;97542.84;;;4.26;100.00
50011;BME280;35899;50.352;19.390;2023-12-29T03:07:00;97545.58;;;4.23;100.00
50011;BME280;35899;50.352;19.390;2023-12-29T03:09:27;97539.11;;;4.19;100.00
50011;BME280;35899;50.352;19.390;2023-12-29T03:11:53;97533.98;;;4.16;100.00
50011;BME280;35899;50.352;19.390;2023-12-29T03:14:20;97531.82;;;4.11;100.00
50011;BME280;35899;50.352;19.390;2023-12-29T03:16:46;97531.94;;;4.05;100.00
50011;BME280;35899;50.352;19.390;2023-12-29T03:19:13;97526.77;;;3.99;100.00
50011;BME280;35899;50.352;19.390;2023-12-29T03:21:39;97526.23;;;3.92;100.00
50011;BME280;35899;50.352;19.390;2023-12-29T03:24:06;97524.83;;;3.89;100.00
50011;BME280;35899;50.352;19.390;2023-12-29T03:26:33;97527.87;;;3.87;100.00
50011;BME280;35899;50.352;19.390;2023-12-29T03:29:00;97525.31;;;3.83;100.00
50011;BME280;35899;50.352;19.390;2023-12-29T03:31:26;97522.27;;;3.79;100.00
50011;BME280;35899;50.352;19.390;2023-12-29T03:33:53;97515.48;;;3.78;100.00
50011;BME280;35899;50.352;19.390;2023-12-29T03:36:20;97513.54;;;3.76;100.00
50011;BME280;35899;50.352;19.390;2023-12-29T03:38:46;97513.02;;;3.72;100.00
50011;BME280;35899;50.352;19.390;2023-12-29T03:41:13;97517.84;;;3.71;100.00
50011;BME280;35899;50.352;19.390;2023-12-29T03:43:40;97515.29;;;3.71;100.00
50011;BME280;35899;50.352;19.390;2023-12-29T03:46:20;97512.13;;;3.69;100.00
50011;BME280;35899;50.352;19.390;2023-12-29T03:48:47;97508.40;;;3.65;100.00
50011;BME280;35899;50.352;19.390;2023-12-29T03:51:15;97508.97;;;3.61;100.00
50011;BME280;35899;50.352;19.390;2023-12-29T03:53:43;97508.54;;;3.62;100.00
50011;BME280;35899;50.352;19.390;2023-12-29T03:56:14;97507.91;;;3.68;100.00
50011;BME280;35899;50.352;19.390;2023-12-29T03:58:42;97508.62;;;3.71;100.00
50011;BME280;35899;50.352;19.390;2023-12-29T04:01:12;97500.59;;;3.71;100.00
50011;BME280;35899;50.352;19.390;2023-12-29T04:03:40;97502.77;;;3.71;100.00
50011;BME280;35899;50.352;19.390;2023-12-29T04:06:07;97509.13;;;3.71;100.00
50011;BME280;35899;50.352;19.390;2023-12-29T04:08:34;97509.89;;;3.73;100.00
50011;BME280;35899;50.352;19.390;2023-12-29T04:11:01;97509.24;;;3.76;100.00
50011;BME280;35899;50.352;19.390;2023-12-29T04:13:28;97503.84;;;3.78;100.00
50011;BME280;35899;50.352;19.390;2023-12-29T04:15:55;97507.19;;;3.79;100.00
50011;BME280;35899;50.352;19.390;2023-12-29T04:18:23;97504.64;;;3.79;100.00
50011;BME280;35899;50.352;19.390;2023-12-29T04:20:50;97512.28;;;3.80;100.00
50011;BME280;35899;50.352;19.390;2023-12-29T04:23:17;97514.49;;;3.80;100.00
50011;BME280;35899;50.352;19.390;2023-12-29T04:25:43;97516.96;;;3.82;100.00
50011;BME280;35899;50.352;19.390;2023-12-29T04:28:10;97512.25;;;3.81;100.00
50011;BME280;35899;50.352;19.390;2023-12-29T04:30:36;97508.73;;;3.79;100.00
50011;BME280;35899;50.352;19.390;2023-12-29T04:33:04;97507.58;;;3.79;100.00
50011;BME280;35899;50.352;19.390;2023-12-29T04:35:30;97507.23;;;3.79;100.00
50011;BME280;35899;50.352;19.390;2023-12-29T04:37:57;97507.31;;;3.80;100.00
50011;BME280;35899;50.352;19.390;2023-12-29T04:40:24;97501.64;;;3.81;100.00
50011;BME280;35899;50.352;19.390;2023-12-29T04:42:50;97497.33;;;3.82;100.00
50011;BME280;35899;50.352;19.390;2023-12-29T04:45:17;97497.34;;;3.81;100.00
50011;BME280;35899;50.352;19.390;2023-12-29T04:47:44;97501.30;;;3.77;100.00
50011;BME280;35899;50.352;19.390;2023-12-29T04:50:10;97498.64;;;3.76;100.00
50011;BME280;35899;50.352;19.390;2023-12-29T04:52:37;97499.05;;;3.78;100.00
50011;BME280;35899;50.352;19.390;2023-12-29T04:55:03;97495.91;;;3.79;100.00
50011;BME280;35899;50.352;19.390;2023-12-29T04:57:30;97497.02;;;3.81;100.00
50011;BME280;35899;50.352;19.390;2023-12-29T04:59:57;97496.77;;;3.83;100.00
50011;BME280;35899;50.352;19.390;2023-12-29T05:02:23;97495.94;;;3.85;100.00
50011;BME280;35899;50.352;19.390;2023-12-29T05:04:50;97489.36;;;3.86;100.00
50011;BME280;35899;50.352;19.390;2023-12-29T05:07:16;97486.75;;;3.91;100.00
50011;BME280;35899;50.352;19.390;2023-12-29T05:09:43;97484.58;;;3.97;100.00
50011;BME280;35899;50.352;19.390;2023-12-29T05:12:09;97479.06;;;4.01;100.00
50011;BME280;35899;50.352;19.390;2023-12-29T05:14:36;97472.99;;;4.06;100.00
50011;BME280;35899;50.352;19.390;2023-12-29T06:03:56;97477.29;;;5.37;100.00
50011;BME280;35899;50.352;19.390;2023-12-29T06:15:54;97480.61;;;5.48;100.00
50011;BME280;35899;50.352;19.390;2023-12-29T06:54:24;97464.52;;;5.93;100.00
50011;BME280;35899;50.352;19.390;2023-12-29T07:16:54;97466.86;;;5.94;100.00
50011;BME280;35899;50.352;19.390;2023-12-29T07:29:04;97480.39;;;6.09;100.00
50011;BME280;35899;50.352;19.390;2023-12-29T07:31:31;97488.64;;;6.18;100.00
50011;BME280;35899;50.352;19.390;2023-12-29T07:33:59;97485.09;;;6.25;100.00
50011;BME280;35899;50.352;19.390;2023-12-29T07:36:26;97475.76;;;6.33;100.00
50011;BME280;35899;50.352;19.390;2023-12-29T07:38:53;97470.21;;;6.36;100.00
50011;BME280;35899;50.352;19.390;2023-12-29T07:41:19;97471.63;;;6.41;100.00
50011;BME280;35899;50.352;19.390;2023-12-29T07:43:46;97470.01;;;6.45;100.00
50011;BME280;35899;50.352;19.390;2023-12-29T07:46:13;97472.41;;;6.48;100.00
50011;BME280;35899;50.352;19.390;2023-12-29T07:48:40;97473.39;;;6.52;100.00
50011;BME280;35899;50.352;19.390;2023-12-29T07:51:07;97473.02;;;6.55;100.00
50011;BME280;35899;50.352;19.390;2023-12-29T07:53:33;97469.80;;;6.60;100.00
50011;BME280;35899;50.352;19.390;2023-12-29T07:56:00;97474.02;;;6.64;100.00
50011;BME280;35899;50.352;19.390;2023-12-29T07:58:26;97478.52;;;6.69;100.00
50011;BME280;35899;50.352;19.390;2023-12-29T08:00:53;97480.83;;;6.73;100.00
50011;BME280;35899;50.352;19.390;2023-12-29T08:03:20;97477.55;;;6.79;100.00
50011;BME280;35899;50.352;19.390;2023-12-29T08:05:47;97475.70;;;6.84;100.00
50011;BME280;35899;50.352;19.390;2023-12-29T08:08:16;97479.55;;;6.89;100.00
50011;BME280;35899;50.352;19.390;2023-12-29T08:10:42;97476.88;;;6.93;100.00
50011;BME280;35899;50.352;19.390;2023-12-29T08:13:10;97471.26;;;6.97;100.00
50011;BME280;35899;50.352;19.390;2023-12-29T08:15:37;97477.84;;;7.02;100.00
50011;BME280;35899;50.352;19.390;2023-12-29T08:18:04;97476.62;;;7.05;100.00
50011;BME280;35899;50.352;19.390;2023-12-29T08:20:31;97479.93;;;7.10;100.00
50011;BME280;35899;50.352;19.390;2023-12-29T08:22:58;97473.17;;;7.16;100.00
50011;BME280;35899;50.352;19.390;2023-12-29T08:25:25;97470.34;;;7.23;100.00
50011;BME280;35899;50.352;19.390;2023-12-29T08:27:51;97472.23;;;7.29;100.00
50011;BME280;35899;50.352;19.390;2023-12-29T08:30:18;97478.35;;;7.35;100.00
50011;BME280;35899;50.352;19.390;2023-12-29T08:32:45;97473.33;;;7.40;100.00
50011;BME280;35899;50.352;19.390;2023-12-29T08:35:12;97477.67;;;7.48;100.00
50011;BME280;35899;50.352;19.390;2023-12-29T08:37:38;97485.52;;;7.57;100.00
50011;BME280;35899;50.352;19.390;2023-12-29T08:40:05;97488.93;;;7.66;100.00
50011;BME280;35899;50.352;19.390;2023-12-29T08:42:32;97490.80;;;7.74;100.00
50011;BME280;35899;50.352;19.390;2023-12-29T08:44:59;97496.25;;;7.80;100.00
50011;BME280;35899;50.352;19.390;2023-12-29T08:47:26;97493.30;;;7.86;100.00
50011;BME280;35899;50.352;19.390;2023-12-29T08:49:52;97501.89;;;7.92;100.00
50011;BME280;35899;50.352;19.390;2023-12-29T08:52:20;97505.05;;;7.98;100.00
50011;BME280;35899;50.352;19.390;2023-12-29T08:58:33;97503.38;;;8.21;100.00
50011;BME280;35899;50.352;19.390;2023-12-29T09:01:00;97500.90;;;8.32;100.00
50011;BME280;35899;50.352;19.390;2023-12-29T09:03:27;97502.90;;;8.41;100.00
50011;BME280;35899;50.352;19.390;2023-12-29T09:05:57;97508.14;;;8.50;100.00
50011;BME280;35899;50.352;19.390;2023-12-29T09:08:24;97502.08;;;8.61;100.00
50011;BME280;35899;50.352;19.390;2023-12-29T09:10:52;97499.86;;;8.73;100.00
50011;BME280;35899;50.352;19.390;2023-12-29T09:13:19;97491.73;;;8.83;100.00
50011;BME280;35899;50.352;19.390;2023-12-29T09:15:45;97489.40;;;8.87;100.00
50011;BME280;35899;50.352;19.390;2023-12-29T09:18:12;97487.15;;;8.87;100.00
50011;BME280;35899;50.352;19.390;2023-12-29T09:20:39;97489.86;;;8.88;100.00
50011;BME280;35899;50.352;19.390;2023-12-29T09:23:06;97493.67;;;8.92;100.00
50011;BME280;35899;50.352;19.390;2023-12-29T09:25:33;97491.09;;;9.00;100.00
50011;BME280;35899;50.352;19.390;2023-12-29T09:27:59;97492.38;;;9.08;100.00
50011;BME280;35899;50.352;19.390;2023-12-29T09:30:26;97487.90;;;9.15;100.00
50011;BME280;35899;50.352;19.390;2023-12-29T09:32:54;97481.23;;;9.22;100.00
50011;BME280;35899;50.352;19.390;2023-12-29T09:35:21;97481.20;;;9.30;100.00
50011;BME280;35899;50.352;19.390;2023-12-29T09:37:48;97473.20;;;9.40;100.00
50011;BME280;35899;50.352;19.390;2023-12-29T09:40:15;97471.48;;;9.59;100.00
50011;BME280;35899;50.352;19.390;2023-12-29T09:42:43;97463.02;;;9.85;100.00
50011;BME280;35899;50.352;19.390;2023-12-29T09:45:12;97460.42;;;10.08;100.00
50011;BME280;35899;50.352;19.390;2023-12-29T09:47:41;97453.77;;;10.25;100.00
50011;BME280;35899;50.352;19.390;2023-12-29T09:50:12;97450.58;;;10.35;100.00
50011;BME280;35899;50.352;19.390;2023-12-29T09:52:40;97450.35;;;10.36;100.00
50011;BME280;35899;50.352;19.390;2023-12-29T09:55:10;97454.19;;;10.36;100.00
50011;BME280;35899;50.352;19.390;2023-12-29T09:57:37;97441.36;;;10.36;99.91
50011;BME280;35899;50.352;19.390;2023-12-29T10:00:10;97437.09;;;10.40;99.07
50011;BME280;35899;50.352;19.390;2023-12-29T10:02:37;97433.80;;;10.43;98.40
50011;BME280;35899;50.352;19.390;2023-12-29T10:05:04;97433.53;;;10.43;98.18
50011;BME280;35899;50.352;19.390;2023-12-29T10:07:38;97440.84;;;10.50;97.82
50011;BME280;35899;50.352;19.390;2023-12-29T10:10:06;97437.05;;;10.58;97.60
50011;BME280;35899;50.352;19.390;2023-12-29T10:12:34;97444.80;;;10.78;97.50
50011;BME280;35899;50.352;19.390;2023-12-29T10:20:48;97435.33;;;11.35;96.47
50011;BME280;35899;50.352;19.390;2023-12-29T10:23:20;97418.79;;;11.40;95.74
50011;BME280;35899;50.352;19.390;2023-12-29T10:25:49;97424.41;;;11.41;94.26
50011;BME280;35899;50.352;19.390;2023-12-29T10:28:16;97428.55;;;11.46;94.98
50011;BME280;35899;50.352;19.390;2023-12-29T10:30:42;97417.55;;;11.42;93.53
50011;BME280;35899;50.352;19.390;2023-12-29T10:33:09;97413.52;;;11.37;93.31
50011;BME280;35899;50.352;19.390;2023-12-29T10:35:36;97424.66;;;11.27;93.33
50011;BME280;35899;50.352;19.390;2023-12-29T10:38:12;97424.34;;;11.19;93.40
50011;BME280;35899;50.352;19.390;2023-12-29T10:40:40;97426.52;;;11.04;92.46
50011;BME280;35899;50.352;19.390;2023-12-29T10:43:07;97423.80;;;10.90;92.47
50011;BME280;35899;50.352;19.390;2023-12-29T10:45:34;97424.71;;;10.94;93.10
50011;BME280;35899;50.352;19.390;2023-12-29T10:48:01;97421.78;;;10.96;93.09
50011;BME280;35899;50.352;19.390;2023-12-29T10:50:28;97414.54;;;10.96;92.80
50011;BME280;35899;50.352;19.390;2023-12-29T10:53:14;97422.17;;;11.02;92.89
50011;BME280;35899;50.352;19.390;2023-12-29T10:55:41;97420.20;;;11.03;92.24
50011;BME280;35899;50.352;19.390;2023-12-29T10:58:07;97409.29;;;11.05;92.04
50011;BME280;35899;50.352;19.390;2023-12-29T11:00:34;97408.95;;;11.10;91.65
50011;BME280;35899;50.352;19.390;2023-12-29T11:03:01;97400.91;;;11.02;91.14
50011;BME280;35899;50.352;19.390;2023-12-29T11:05:28;97397.44;;;11.06;91.22
50011;BME280;35899;50.352;19.390;2023-12-29T11:07:55;97391.20;;;11.13;91.30
50011;BME280;35899;50.352;19.390;2023-12-29T11:10:27;97392.75;;;11.06;90.79
50011;BME280;35899;50.352;19.390;2023-12-29T11:12:58;97382.14;;;10.98;90.82
50011;BME280;35899;50.352;19.390;2023-12-29T11:15:27;97382.28;;;10.95;91.06
50011;BME280;35899;50.352;19.390;2023-12-29T11:17:54;97378.16;;;10.94;90.57
50011;BME280;35899;50.352;19.390;2023-12-29T11:20:23;97379.77;;;10.91;89.88
50011;BME280;35899;50.352;19.390;2023-12-29T11:22:50;97389.92;;;10.92;90.09
50011;BME280;35899;50.352;19.390;2023-12-29T11:25:16;97390.73;;;11.03;89.93
50011;BME280;35899;50.352;19.390;2023-12-29T11:27:44;97393.68;;;11.12;89.77
50011;BME280;35899;50.352;19.390;2023-12-29T11:30:14;97394.88;;;11.23;89.47
50011;BME280;35899;50.352;19.390;2023-12-29T11:32:55;97403.09;;;11.32;89.68
50011;BME280;35899;50.352;19.390;2023-12-29T11:35:34;97402.37;;;11.46;89.09
50011;BME280;35899;50.352;19.390;2023-12-29T11:38:33;97407.98;;;11.60;86.79
50011;BME280;35899;50.352;19.390;2023-12-29T11:43:42;97405.63;;;12.07;86.91
50011;BME280;35899;50.352;19.390;2023-12-29T11:46:43;97401.41;;;12.38;86.55
50011;BME280;35899;50.352;19.390;2023-12-29T11:49:11;97405.04;;;12.61;85.97
50011;BME280;35899;50.352;19.390;2023-12-29T11:51:42;97406.27;;;12.53;85.19
50011;BME280;35899;50.352;19.390;2023-12-29T11:54:09;97402.18;;;12.33;84.59
50011;BME280;35899;50.352;19.390;2023-12-29T11:56:38;97398.66;;;12.22;84.23
50011;BME280;35899;50.352;19.390;2023-12-29T11:59:16;97396.36;;;12.33;84.84
50011;BME280;35899;50.352;19.390;2023-12-29T12:01:43;97388.98;;;12.74;85.25
50011;BME280;35899;50.352;19.390;2023-12-29T12:04:42;97391.41;;;13.04;84.33
50011;BME280;35899;50.352;19.390;2023-12-29T12:10:28;97398.08;;;13.24;82.04
50011;BME280;35899;50.352;19.390;2023-12-29T12:12:57;97401.05;;;13.03;81.49
50011;BME280;35899;50.352;19.390;2023-12-29T12:17:57;97392.97;;;12.68;81.53
50011;BME280;35899;50.352;19.390;2023-12-29T12:20:24;97386.17;;;12.46;81.28
50011;BME280;35899;50.352;19.390;2023-12-29T12:25:26;97390.19;;;11.97;81.59
50011;BME280;35899;50.352;19.390;2023-12-29T12:27:53;97388.77;;;11.81;82.01
50011;BME280;35899;50.352;19.390;2023-12-29T12:30:20;97390.48;;;11.68;82.65
50011;BME280;35899;50.352;19.390;2023-12-29T12:33:07;97392.73;;;11.49;82.51
50011;BME280;35899;50.352;19.390;2023-12-29T12:35:34;97386.21;;;11.27;82.82
50011;BME280;35899;50.352;19.390;2023-12-29T12:38:11;97377.95;;;11.12;83.51
50011;BME280;35899;50.352;19.390;2023-12-29T12:40:38;97378.06;;;10.95;84.04
50011;BME280;35899;50.352;19.390;2023-12-29T12:43:08;97384.73;;;10.81;84.60
50011;BME280;35899;50.352;19.390;2023-12-29T12:45:41;97384.27;;;10.74;85.23
50011;BME280;35899;50.352;19.390;2023-12-29T12:48:14;97376.47;;;10.63;84.79
50011;BME280;35899;50.352;19.390;2023-12-29T12:50:46;97383.66;;;10.44;85.06
50011;BME280;35899;50.352;19.390;2023-12-29T12:53:14;97381.70;;;10.22;84.92
50011;BME280;35899;50.352;19.390;2023-12-29T12:55:43;97383.64;;;10.04;85.33
50011;BME280;35899;50.352;19.390;2023-12-29T12:58:09;97381.29;;;9.91;86.09
50011;BME280;35899;50.352;19.390;2023-12-29T13:00:36;97379.84;;;9.83;86.68
50011;BME280;35899;50.352;19.390;2023-12-29T13:03:03;97377.79;;;9.76;87.13
50011;BME280;35899;50.352;19.390;2023-12-29T13:05:30;97382.52;;;9.66;87.40
50011;BME280;35899;50.352;19.390;2023-12-29T13:07:57;97382.14;;;9.57;87.93
50011;BME280;35899;50.352;19.390;2023-12-29T13:10:24;97379.04;;;9.50;88.40
50011;BME280;35899;50.352;19.390;2023-12-29T13:12:54;97384.33;;;9.44;88.86
50011;BME280;35899;50.352;19.390;2023-12-29T13:15:22;97377.10;;;9.36;89.48
50011;BME280;35899;50.352;19.390;2023-12-29T13:17:55;97374.64;;;9.28;89.40
50011;BME280;35899;50.352;19.390;2023-12-29T13:20:24;97377.13;;;9.20;89.70
50011;BME280;35899;50.352;19.390;2023-12-29T13:22:51;97380.09;;;9.14;90.35
50011;BME280;35899;50.352;19.390;2023-12-29T13:25:23;97381.65;;;9.10;90.39
50011;BME280;35899;50.352;19.390;2023-12-29T13:27:53;97377.48;;;9.03;90.76
50011;BME280;35899;50.352;19.390;2023-12-29T13:30:21;97369.02;;;8.95;91.20
50011;BME280;35899;50.352;19.390;2023-12-29T13:32:48;97367.05;;;8.90;91.47
50011;BME280;35899;50.352;19.390;2023-12-29T13:35:25;97364.32;;;8.85;91.52
50011;BME280;35899;50.352;19.390;2023-12-29T13:38:11;97366.34;;;8.78;92.01
50011;BME280;35899;50.352;19.390;2023-12-29T13:40:44;97368.70;;;8.74;92.44
50011;BME280;35899;50.352;19.390;2023-12-29T13:43:15;97364.00;;;8.70;92.58
50011;BME280;35899;50.352;19.390;2023-12-29T13:45:43;97366.48;;;8.66;92.82
50011;BME280;35899;50.352;19.390;2023-12-29T13:48:11;97364.20;;;8.62;92.94
50011;BME280;35899;50.352;19.390;2023-12-29T13:50:39;97364.78;;;8.56;93.07
50011;BME280;35899;50.352;19.390;2023-12-29T13:53:05;97372.02;;;8.51;93.48
50011;BME280;35899;50.352;19.390;2023-12-29T13:55:32;97376.02;;;8.46;93.59
50011;BME280;35899;50.352;19.390;2023-12-29T13:57:59;97376.55;;;8.41;93.90
50011;BME280;35899;50.352;19.390;2023-12-29T14:00:26;97379.91;;;8.37;94.09
50011;BME280;35899;50.352;19.390;2023-12-29T14:05:23;97374.44;;;8.23;94.31
50011;BME280;35899;50.352;19.390;2023-12-29T14:08:00;97380.90;;;8.17;94.50
50011;BME280;35899;50.352;19.390;2023-12-29T14:10:35;97387.52;;;8.11;94.78
50011;BME280;35899;50.352;19.390;2023-12-29T14:13:09;97385.31;;;8.06;94.80
50011;BME280;35899;50.352;19.390;2023-12-29T14:15:39;97385.11;;;7.99;95.26
50011;BME280;35899;50.352;19.390;2023-12-29T14:20:39;97391.69;;;7.86;95.33
50011;BME280;35899;50.352;19.390;2023-12-29T14:23:06;97393.56;;;7.80;95.75
50011;BME280;35899;50.352;19.390;2023-12-29T14:25:34;97393.73;;;7.76;95.98
50011;BME280;35899;50.352;19.390;2023-12-29T14:28:02;97401.46;;;7.71;96.51
50011;BME280;35899;50.352;19.390;2023-12-29T14:30:29;97403.70;;;7.68;96.75
50011;BME280;35899;50.352;19.390;2023-12-29T14:32:56;97402.61;;;7.64;96.96
50011;BME280;35899;50.352;19.390;2023-12-29T14:35:23;97406.29;;;7.58;96.99
50011;BME280;35899;50.352;19.390;2023-12-29T14:37:49;97411.36;;;7.51;97.41
50011;BME280;35899;50.352;19.390;2023-12-29T14:40:16;97408.62;;;7.46;97.62
50011;BME280;35899;50.352;19.390;2023-12-29T14:42:42;97417.05;;;7.40;97.93
50011;BME280;35899;50.352;19.390;2023-12-29T14:45:09;97419.34;;;7.37;98.01
50011;BME280;35899;50.352;19.390;2023-12-29T14:47:36;97422.79;;;7.32;98.01
50011;BME280;35899;50.352;19.390;2023-12-29T14:50:05;97422.68;;;7.25;98.27
50011;BME280;35899;50.352;19.390;2023-12-29T14:52:35;97419.41;;;7.20;98.60
50011;BME280;35899;50.352;19.390;2023-12-29T14:55:01;97417.97;;;7.16;98.71
50011;BME280;35899;50.352;19.390;2023-12-29T14:57:38;97415.67;;;7.14;99.46
50011;BME280;35899;50.352;19.390;2023-12-29T15:00:08;97421.04;;;7.14;99.40
50011;BME280;35899;50.352;19.390;2023-12-29T15:02:35;97416.09;;;7.10;99.62
50011;BME280;35899;50.352;19.390;2023-12-29T15:05:02;97419.33;;;7.09;99.82
50011;BME280;35899;50.352;19.390;2023-12-29T15:07:28;97416.43;;;7.04;99.79
50011;BME280;35899;50.352;19.390;2023-12-29T15:09:55;97417.51;;;7.01;99.93
50011;BME280;35899;50.352;19.390;2023-12-29T15:12:21;97417.95;;;6.97;100.00
50011;BME280;35899;50.352;19.390;2023-12-29T15:14:48;97419.13;;;6.95;100.00
50011;BME280;35899;50.352;19.390;2023-12-29T15:17:14;97422.58;;;6.92;100.00
50011;BME280;35899;50.352;19.390;2023-12-29T15:19:41;97424.20;;;6.88;100.00
50011;BME280;35899;50.352;19.390;2023-12-29T15:22:08;97424.33;;;6.83;100.00
50011;BME280;35899;50.352;19.390;2023-12-29T15:24:34;97421.42;;;6.80;100.00
50011;BME280;35899;50.352;19.390;2023-12-29T15:27:01;97415.23;;;6.77;100.00
50011;BME280;35899;50.352;19.390;2023-12-29T15:29:27;97417.70;;;6.77;100.00